Time;durP1;ratioP1;P1;durP2;ratioP2;P2;SDS_P1;SDS_P2;PMS_P1;PMS_P2;Temp;Humidity;BMP_temperature;BMP_pressure;BME280_temperature;BME280_humidity;BME280_pressure;Samples;Min_cycle;Max_cycle;Signal;HPM_P1;HPM_P2
2022/09/26 00:01:41;;;;;;;7.53;4.88;;;13.50;99.90;;;;;;4930873;29;20036;-83
2022/09/26 00:04:16;;;;;;;9.32;5.63;;;13.50;99.90;;;;;;4930769;29;20032;-83
2022/09/26 00:06:42;;;;;;;6.47;5.15;;;13.50;99.90;;;;;;4914713;29;20482;-83
2022/09/26 00:09:08;;;;;;;5.78;4.88;;;13.40;99.90;;;;;;4899197;29;20028;-83
2022/09/26 00:11:34;;;;;;;4.93;4.53;;;13.40;99.90;;;;;;4930393;29;20024;-83
2022/09/26 00:14:03;;;;;;;8.30;4.95;;;13.40;99.90;;;;;;4930541;29;20024;-83
2022/09/26 00:16:30;;;;;;;8.32;5.55;;;13.40;99.90;;;;;;4930296;29;20398;-83
2022/09/26 00:18:57;;;;;;;7.95;6.53;;;13.40;99.90;;;;;;4930418;29;20031;-83
2022/09/26 00:21:25;;;;;;;5.47;4.30;;;13.40;99.90;;;;;;4914374;29;20063;-82
2022/09/26 00:23:52;;;;;;;7.15;6.45;;;13.40;99.90;;;;;;4930442;29;20035;-82
2022/09/26 00:26:19;;;;;;;5.57;5.15;;;13.40;99.90;;;;;;4930281;29;20072;-82
2022/09/26 00:28:46;;;;;;;5.85;5.38;;;13.40;99.90;;;;;;4898829;29;20040;-82
2022/09/26 00:31:17;;;;;;;4.22;3.70;;;13.40;99.90;;;;;;4914658;29;20075;-83
2022/09/26 00:33:43;;;;;;;4.40;3.97;;;13.40;99.90;;;;;;4930511;29;20133;-83
2022/09/26 00:36:10;;;;;;;6.20;5.20;;;13.40;99.90;;;;;;4914377;29;20028;-83
2022/09/26 00:38:37;;;;;;;3.10;2.65;;;13.40;99.90;;;;;;4929558;29;20028;-83
2022/09/26 00:41:03;;;;;;;3.83;3.35;;;13.40;99.90;;;;;;4914430;29;20038;-83
2022/09/26 00:43:35;;;;;;;5.47;4.00;;;13.40;99.90;;;;;;4930261;29;20032;-82
2022/09/26 00:46:13;;;;;;;7.18;4.40;;;13.40;99.90;;;;;;4914297;29;20122;-82
2022/09/26 00:48:41;;;;;;;4.30;3.90;;;13.40;99.90;;;;;;4913979;29;20107;-83
2022/09/26 00:51:07;;;;;;;4.55;3.95;;;13.40;99.90;;;;;;4929946;29;20029;-83
2022/09/26 00:53:38;;;;;;;3.65;3.35;;;13.40;99.90;;;;;;4910833;29;20475;-82
2022/09/26 00:56:09;;;;;;;4.90;4.15;;;13.40;99.90;;;;;;4910948;29;20065;-82
2022/09/26 00:58:42;;;;;;;8.30;3.92;;;13.40;99.90;;;;;;4924353;29;20068;-82
2022/09/26 01:01:08;;;;;;;3.78;3.42;;;13.40;99.90;;;;;;4929893;29;20466;-82
2022/09/26 01:03:36;;;;;;;5.78;3.70;;;13.40;99.90;;;;;;4913858;29;20020;-82
2022/09/26 01:06:02;;;;;;;2.85;2.58;;;13.40;99.90;;;;;;4929891;29;20051;-82
2022/09/26 01:08:33;;;;;;;2.63;2.33;;;13.40;99.90;;;;;;4913779;29;20494;-82
2022/09/26 01:11:01;;;;;;;5.88;3.67;;;13.40;99.90;;;;;;4929716;29;20497;-82
2022/09/26 01:13:30;;;;;;;9.15;2.30;;;13.40;99.90;;;;;;4929302;29;20386;-82
2022/09/26 01:15:56;;;;;;;2.25;2.03;;;13.40;99.90;;;;;;4929469;29;20039;-82
2022/09/26 01:18:23;;;;;;;3.15;2.95;;;13.40;99.90;;;;;;4929192;29;20035;-82
2022/09/26 01:21:09;;;;;;;2.78;2.58;;;13.40;99.90;;;;;;4913545;29;20052;-83
2022/09/26 01:23:41;;;;;;;2.50;2.30;;;13.40;99.90;;;;;;4918381;29;20083;-82
2022/09/26 01:26:15;;;;;;;6.97;3.55;;;13.40;99.90;;;;;;4929344;29;20028;-82
2022/09/26 01:29:09;;;;;;;2.03;1.77;;;13.40;99.90;;;;;;4929354;29;20031;-83
2022/09/26 01:34:56;;;;;;;4.18;3.13;;;13.30;99.90;;;;;;4930100;29;20042;-83
2022/09/26 01:37:37;;;;;;;7.53;2.40;;;13.30;99.90;;;;;;4913303;29;20108;-83
2022/09/26 01:40:21;;;;;;;4.55;2.13;;;13.40;99.90;;;;;;4913191;29;20028;-82
2022/09/26 01:43:11;;;;;;;2.25;1.80;;;13.30;99.90;;;;;;4928843;29;20036;-83
2022/09/26 01:45:57;;;;;;;3.28;1.63;;;13.30;99.90;;;;;;4910126;29;20072;-82
2022/09/26 01:48:32;;;;;;;2.03;1.90;;;13.30;99.90;;;;;;4910035;29;20059;-83
2022/09/26 01:51:25;;;;;;;5.28;1.92;;;13.30;99.90;;;;;;4909888;29;20032;-82
2022/09/26 01:54:08;;;;;;;2.83;2.53;;;13.30;99.90;;;;;;4907221;29;20434;-82
2022/09/26 01:56:38;;;;;;;2.45;2.25;;;13.30;99.90;;;;;;4928640;29;20055;-82
2022/09/26 01:59:08;;;;;;;;;;;13.30;99.90;;;;;;4929127;29;20028;-82
2022/09/26 02:01:38;;;;;;;5.57;2.60;;;13.30;99.90;;;;;;4928571;29;20353;-82
2022/09/26 02:04:16;;;;;;;2.05;1.90;;;13.30;99.90;;;;;;4928498;29;20363;-82
2022/09/26 02:07:08;;;;;;;5.30;2.42;;;13.30;99.90;;;;;;4912932;29;20043;-82
2022/09/26 02:09:45;;;;;;;4.03;2.28;;;13.30;99.90;;;;;;4928716;29;20032;-82
2022/09/26 02:12:18;;;;;;;2.88;1.92;;;13.30;99.90;;;;;;4928583;29;20032;-83
2022/09/26 02:14:48;;;;;;;3.97;2.85;;;13.30;99.90;;;;;;4928418;29;20032;-82
2022/09/26 02:17:27;;;;;;;4.23;1.80;;;13.30;99.90;;;;;;4912877;29;20054;-83
2022/09/26 02:19:57;;;;;;;4.10;1.67;;;13.30;99.90;;;;;;4912796;29;20036;-82
2022/09/26 02:22:27;;;;;;;5.55;3.03;;;13.30;99.90;;;;;;4927778;29;20036;-81
2022/09/26 02:24:53;;;;;;;5.85;1.98;;;13.30;99.90;;;;;;4927944;29;20028;-82
2022/09/26 02:27:20;;;;;;;3.05;1.98;;;13.30;99.90;;;;;;4927971;29;20032;-82
2022/09/26 02:29:46;;;;;;;1.55;1.45;;;13.20;99.90;;;;;;4927676;29;20028;-83
2022/09/26 02:32:17;;;;;;;2.05;1.73;;;13.20;99.90;;;;;;4912358;29;20041;-82
2022/09/26 02:34:46;;;;;;;2.88;2.33;;;13.20;99.90;;;;;;4928899;29;20437;-82
2022/09/26 02:37:14;;;;;;;4.90;2.60;;;13.20;99.90;;;;;;4931086;29;20027;-82
2022/09/26 02:39:45;;;;;;;5.95;2.80;;;13.20;99.90;;;;;;4930901;29;20036;-82
2022/09/26 02:42:43;;;;;;;17.30;2.45;;;13.20;99.90;;;;;;4916239;29;20032;-82
2022/09/26 02:45:25;;;;;;;7.15;2.50;;;13.20;99.90;;;;;;4915021;29;20083;-82
2022/09/26 02:48:08;;;;;;;2.05;1.95;;;13.20;99.90;;;;;;4930940;29;20036;-83
2022/09/26 02:50:59;;;;;;;2.15;1.95;;;13.20;99.90;;;;;;4915051;29;20032;-83
2022/09/26 02:53:56;;;;;;;2.35;2.13;;;13.20;99.90;;;;;;4930569;29;20032;-82
2022/09/26 02:56:52;;;;;;;4.47;2.10;;;13.20;99.90;;;;;;4915838;29;20060;-84
2022/09/26 02:59:46;;;;;;;4.68;2.45;;;13.20;99.90;;;;;;4927598;29;20047;-82
2022/09/26 03:02:27;;;;;;;4.38;2.55;;;13.10;99.90;;;;;;4915028;29;20024;-82
2022/09/26 03:05:22;;;;;;;2.17;1.88;;;13.10;99.90;;;;;;4930536;29;20100;-83
2022/09/26 03:08:13;;;;;;;3.42;2.47;;;13.10;99.90;;;;;;4930610;29;20032;-85
2022/09/26 03:10:40;;;;;;;4.75;2.40;;;13.10;99.90;;;;;;4914915;29;20032;-82
2022/09/26 03:13:12;;;;;;;5.35;2.80;;;13.10;99.90;;;;;;4930212;29;20030;-82
2022/09/26 03:15:40;;;;;;;4.32;2.67;;;13.10;99.90;;;;;;4914501;29;20032;-82
2022/09/26 03:18:27;;;;;;;2.10;1.92;;;13.10;99.90;;;;;;4930228;29;20072;-82
2022/09/26 03:20:53;;;;;;;3.50;2.33;;;13.10;99.90;;;;;;4871788;29;1717386;-82
2022/09/26 03:23:26;;;;;;;2.55;1.95;;;13.10;99.90;;;;;;4900140;29;20032;-82
2022/09/26 03:26:07;;;;;;;1.88;1.65;;;13.10;99.90;;;;;;4916098;29;20048;-82
2022/09/26 03:28:35;;;;;;;4.60;3.63;;;13.10;99.90;;;;;;4931976;29;20101;-82
2022/09/26 03:31:00;;;;;;;4.95;2.58;;;13.10;99.90;;;;;;4931326;29;20024;-82
2022/09/26 03:33:28;;;;;;;2.67;2.47;;;13.10;99.90;;;;;;4915981;29;20123;-85
2022/09/26 03:35:54;;;;;;;4.43;2.00;;;13.10;99.90;;;;;;4931260;29;20549;-82
2022/09/26 03:38:22;;;;;;;2.33;2.00;;;13.10;99.90;;;;;;4915943;29;20438;-85
2022/09/26 03:41:01;;;;;;;2.42;2.22;;;13.10;99.90;;;;;;4917164;29;20107;-84
2022/09/26 03:43:56;;;;;;;5.50;1.73;;;13.10;99.90;;;;;;4931186;29;20024;-84
2022/09/26 03:46:24;;;;;;;2.95;2.63;;;13.10;99.90;;;;;;4915488;29;20032;-84
2022/09/26 03:48:50;;;;;;;3.38;2.05;;;13.10;99.90;;;;;;4915160;29;20036;-84
2022/09/26 03:51:17;;;;;;;1.92;1.83;;;13.10;99.90;;;;;;4915077;29;20039;-84
2022/09/26 03:53:46;;;;;;;2.50;2.10;;;13.00;99.90;;;;;;4915111;29;20036;-84
2022/09/26 03:56:17;;;;;;;3.65;1.80;;;13.00;99.90;;;;;;4915298;29;20039;-84
2022/09/26 03:58:44;;;;;;;8.90;2.20;;;13.00;99.90;;;;;;4946546;29;20028;-84
2022/09/26 04:01:13;;;;;;;2.67;2.40;;;13.00;99.90;;;;;;4930351;29;20017;-84
2022/09/26 04:03:41;;;;;;;4.40;2.87;;;13.00;99.90;;;;;;4930687;29;20031;-84
2022/09/26 04:06:08;;;;;;;2.75;2.28;;;13.00;99.90;;;;;;4930827;29;20144;-84
2022/09/26 04:08:39;;;;;;;4.40;2.47;;;13.00;99.90;;;;;;4930729;29;20036;-84
2022/09/26 04:11:18;;;;;;;5.57;2.65;;;13.00;99.90;;;;;;4930140;29;20118;-84
2022/09/26 04:13:44;;;;;;;3.83;2.53;;;13.00;99.90;;;;;;4930530;29;20060;-84
2022/09/26 04:16:10;;;;;;;3.90;3.00;;;13.00;99.90;;;;;;4930411;29;20016;-84
2022/09/26 04:18:38;;;;;;;2.50;2.30;;;13.00;99.90;;;;;;4930538;29;20398;-84
2022/09/26 04:21:07;;;;;;;4.60;3.25;;;13.00;99.90;;;;;;4929940;29;20044;-83
2022/09/26 04:23:35;;;;;;;3.42;2.50;;;13.00;99.90;;;;;;4930282;29;20024;-84
2022/09/26 04:26:13;;;;;;;6.63;2.92;;;12.90;99.90;;;;;;4930080;29;20178;-84
2022/09/26 04:28:39;;;;;;;15.30;3.63;;;13.00;99.90;;;;;;4930440;29;20454;-84
2022/09/26 04:31:11;;;;;;;3.60;3.00;;;13.00;99.90;;;;;;4914557;29;20047;-84
2022/09/26 04:33:39;;;;;;;4.78;2.33;;;13.00;99.90;;;;;;4930138;29;20024;-84
2022/09/26 04:36:12;;;;;;;4.10;3.22;;;12.90;99.90;;;;;;4929981;29;20028;-84
2022/09/26 04:38:40;;;;;;;5.18;2.72;;;12.90;99.90;;;;;;4930268;29;20028;-84
2022/09/26 04:41:12;;;;;;;4.75;2.80;;;13.00;99.90;;;;;;4929596;29;20024;-84
2022/09/26 04:43:39;;;;;;;3.45;2.38;;;13.00;99.90;;;;;;4929922;29;20034;-84
2022/09/26 04:46:27;;;;;;;3.58;2.88;;;12.90;99.90;;;;;;4929694;29;20024;-84
2022/09/26 04:48:55;;;;;;;5.15;3.00;;;12.90;99.90;;;;;;4929314;29;20386;-84
2022/09/26 04:51:23;;;;;;;4.05;3.65;;;12.90;99.90;;;;;;4929347;29;20059;-84
2022/09/26 04:53:50;;;;;;;4.15;2.72;;;12.90;99.90;;;;;;4895184;29;20406;-84
2022/09/26 04:56:40;;;;;;;4.38;2.85;;;12.90;99.90;;;;;;4916453;29;20047;-84
2022/09/26 04:59:07;;;;;;;3.97;2.10;;;12.90;99.90;;;;;;4914509;29;20051;-84
2022/09/26 05:01:51;;;;;;;6.40;2.42;;;12.90;99.90;;;;;;4924775;29;20046;-84
2022/09/26 05:04:23;;;;;;;3.50;2.05;;;12.90;99.90;;;;;;4925785;29;20095;-84
2022/09/26 05:06:49;;;;;;;9.30;2.63;;;12.90;99.90;;;;;;4903777;29;20032;-84
2022/09/26 05:09:24;;;;;;;4.05;2.33;;;12.90;99.90;;;;;;4929749;29;20401;-84
2022/09/26 05:12:00;;;;;;;5.05;3.28;;;12.90;99.90;;;;;;4914838;29;20032;-84
2022/09/26 05:14:26;;;;;;;5.78;2.22;;;12.90;99.90;;;;;;4914214;29;20036;-84
2022/09/26 05:16:53;;;;;;;2.67;2.08;;;12.80;99.90;;;;;;4929975;29;20016;-84
2022/09/26 05:19:20;;;;;;;5.15;2.33;;;;;;;;;;4925804;29;20027;-83
2022/09/26 05:22:06;;;;;;;3.95;2.38;;;12.70;99.90;;;;;;4910971;29;20056;-83
2022/09/26 05:27:18;;;;;;;6.90;4.82;;;12.60;99.90;;;;;;4945676;29;20028;-86
2022/09/26 05:29:44;;;;;;;7.85;2.80;;;12.60;99.90;;;;;;4915381;29;20024;-86
2022/09/26 05:32:11;;;;;;;7.30;3.03;;;12.70;99.90;;;;;;4929855;29;20058;-85
2022/09/26 05:34:37;;;;;;;2.53;2.08;;;12.60;99.90;;;;;;4913828;29;20055;-86
2022/09/26 05:37:05;;;;;;;3.00;2.72;;;12.60;99.90;;;;;;4929033;29;20032;-86
2022/09/26 05:42:16;;;;;;;4.05;2.78;;;12.60;99.90;;;;;;4918339;29;20039;-86
2022/09/26 05:44:42;;;;;;;4.07;1.92;;;12.60;99.90;;;;;;4913566;29;20036;-85
2022/09/26 05:47:08;;;;;;;11.52;3.35;;;12.60;99.90;;;;;;4913980;29;20032;-85
2022/09/26 05:49:35;;;;;;;4.68;2.25;;;12.60;99.90;;;;;;4926095;29;20032;-85
2022/09/26 05:52:02;;;;;;;3.08;2.40;;;12.60;99.90;;;;;;4929731;29;20039;-85
2022/09/26 05:54:28;;;;;;;5.57;3.47;;;12.50;99.90;;;;;;4929059;29;20035;-85
2022/09/26 05:56:56;;;;;;;5.63;2.42;;;12.50;99.90;;;;;;4913518;29;20099;-85
2022/09/26 05:59:38;;;;;;;8.52;1.90;;;12.90;99.90;;;;;;4916256;29;20039;-85
2022/09/26 06:02:22;;;;;;;4.65;2.00;;;12.50;99.90;;;;;;4929794;29;20050;-85
2022/09/26 06:05:10;;;;;;;4.75;2.78;;;12.50;99.90;;;;;;4928909;29;20043;-85
2022/09/26 06:07:37;;;;;;;3.65;2.58;;;12.50;99.90;;;;;;4930466;29;20051;-85
2022/09/26 06:10:06;;;;;;;1.17;1.13;;;12.50;99.90;;;;;;4930846;29;20040;-84
2022/09/26 06:12:52;;;;;;;5.05;2.35;;;12.50;99.90;;;;;;4917804;29;20095;-85
2022/09/26 06:15:18;;;;;;;1.88;1.30;;;12.50;99.90;;;;;;4930459;29;20039;-85
2022/09/26 06:17:47;;;;;;;7.15;1.73;;;12.50;99.90;;;;;;4929921;29;20112;-85
2022/09/26 06:20:12;;;;;;;3.30;3.08;;;12.50;99.90;;;;;;4929923;29;20032;-85
2022/09/26 06:22:42;;;;;;;5.57;2.20;;;12.50;99.90;;;;;;4928762;29;20044;-85
2022/09/26 06:25:09;;;;;;;3.47;1.90;;;12.40;99.90;;;;;;4912508;29;20028;-85
2022/09/26 06:27:37;;;;;;;2.00;1.75;;;12.40;99.90;;;;;;4928797;29;20076;-85
2022/09/26 06:30:11;;;;;;;3.42;2.20;;;12.40;99.90;;;;;;4930522;29;20042;-85
2022/09/26 06:32:38;;;;;;;3.40;2.60;;;12.40;99.90;;;;;;4915425;29;20047;-85
2022/09/26 06:35:36;;;;;;;7.68;2.17;;;12.40;99.90;;;;;;4909677;29;20103;-85
2022/09/26 06:38:11;;;;;;;3.92;2.95;;;12.40;99.90;;;;;;4917245;29;20024;-85
2022/09/26 06:40:37;;;;;;;1.55;1.30;;;12.40;99.90;;;;;;4931841;29;20051;-85
2022/09/26 06:43:04;;;;;;;2.30;2.05;;;12.40;99.90;;;;;;4928059;29;20028;-85
2022/09/26 06:45:53;;;;;;;6.00;2.15;;;12.30;99.90;;;;;;4925062;29;20035;-85
2022/09/26 06:48:24;;;;;;;3.42;1.63;;;12.40;99.90;;;;;;4920992;29;20079;-85
2022/09/26 06:51:18;;;;;;;2.17;1.38;;;12.30;99.90;;;;;;4920050;29;20044;-85
2022/09/26 06:53:45;;;;;;;1.98;1.80;;;12.30;99.90;;;;;;4917798;29;20023;-85
2022/09/26 06:56:14;;;;;;;4.25;1.70;;;12.30;99.90;;;;;;4934850;29;20036;-85
2022/09/26 06:58:40;;;;;;;2.65;2.08;;;12.40;99.90;;;;;;4920526;29;20030;-85
2022/09/26 07:01:07;;;;;;;4.18;1.80;;;12.30;99.90;;;;;;4916510;29;20040;-85
2022/09/26 07:04:03;;;;;;;5.65;1.85;;;12.40;99.90;;;;;;4933950;29;20036;-85
2022/09/26 07:06:36;;;;;;;3.40;2.88;;;12.40;99.90;;;;;;4931915;29;20036;-85
2022/09/26 07:09:03;;;;;;;4.60;1.48;;;12.30;99.90;;;;;;4932000;29;20441;-84
2022/09/26 07:11:49;;;;;;;3.17;1.90;;;12.40;99.90;;;;;;4929800;29;20096;-85
2022/09/26 07:14:16;;;;;;;1.92;1.20;;;12.30;99.90;;;;;;4931719;29;20042;-85
2022/09/26 07:16:50;;;;;;;4.80;1.73;;;12.30;99.90;;;;;;4929791;29;20060;-85
2022/09/26 07:19:35;;;;;;;7.38;2.13;;;12.40;99.90;;;;;;4917446;29;20076;-85
2022/09/26 07:22:05;;;;;;;2.22;2.03;;;12.30;99.90;;;;;;4917561;29;20051;-85
2022/09/26 07:24:51;;;;;;;1.45;1.35;;;12.30;99.90;;;;;;4933707;29;20036;-85
2022/09/26 07:27:17;;;;;;;7.28;1.73;;;12.30;99.90;;;;;;4901670;29;20070;-84
2022/09/26 07:29:46;;;;;;;4.47;1.20;;;12.30;99.90;;;;;;4932824;29;20024;-85
2022/09/26 07:32:12;;;;;;;3.15;1.50;;;12.30;99.90;;;;;;4933126;29;20024;-85
2022/09/26 07:35:02;;;;;;;6.57;1.15;;;12.30;99.90;;;;;;4919183;29;20040;-85
2022/09/26 07:37:29;;;;;;;1.40;1.30;;;12.30;99.90;;;;;;4931895;29;20039;-84
2022/09/26 07:39:56;;;;;;;6.07;1.55;;;12.30;99.90;;;;;;4929363;29;20029;-85
2022/09/26 07:42:23;;;;;;;1.65;1.55;;;12.30;99.90;;;;;;4931015;29;20039;-85
2022/09/26 07:44:49;;;;;;;2.78;2.08;;;12.30;99.90;;;;;;4930451;29;20028;-85
2022/09/26 07:50:13;;;;;;;1.95;1.70;;;12.30;99.90;;;;;;4931515;29;20048;-85
2022/09/26 07:52:56;;;;;;;1.50;1.40;;;12.30;99.90;;;;;;4931136;29;20039;-85
2022/09/26 07:55:26;;;;;;;2.60;1.02;;;12.30;99.90;;;;;;4932530;29;20040;-85
2022/09/26 07:58:06;;;;;;;3.85;1.50;;;12.30;99.90;;;;;;4920899;29;20032;-85
2022/09/26 08:00:43;;;;;;;2.63;1.80;;;12.30;99.90;;;;;;4920649;29;20043;-85
2022/09/26 08:03:29;;;;;;;5.20;1.23;;;12.30;99.90;;;;;;4933428;29;20040;-85
2022/09/26 08:06:00;;;;;;;2.20;1.73;;;12.30;99.90;;;;;;4933600;29;20038;-85
2022/09/26 08:08:28;;;;;;;3.80;2.15;;;12.40;99.90;;;;;;4918298;29;20032;-85
2022/09/26 08:11:00;;;;;;;4.82;1.63;;;12.30;99.90;;;;;;4933657;29;20032;-85
2022/09/26 08:13:45;;;;;;;1.95;1.75;;;12.30;99.90;;;;;;4919308;29;20040;-85
2022/09/26 08:16:23;;;;;;;2.70;1.08;;;12.30;99.90;;;;;;4933838;29;20044;-85
2022/09/26 08:18:53;;;;;;;2.00;1.63;;;12.40;99.90;;;;;;4917651;29;20103;-85
2022/09/26 08:21:21;;;;;;;2.15;1.33;;;12.40;99.90;;;;;;4931365;29;20132;-86
2022/09/26 08:23:49;;;;;;;5.57;1.60;;;12.40;99.90;;;;;;4931434;29;20035;-85
2022/09/26 08:26:38;;;;;;;2.72;2.08;;;12.40;99.90;;;;;;4917888;29;20091;-85
2022/09/26 08:29:25;;;;;;;5.38;2.88;;;12.40;99.90;;;;;;4930949;29;20040;-85
2022/09/26 08:31:53;;;;;;;3.03;2.83;;;12.40;99.90;;;;;;4928479;29;20582;-85
2022/09/26 08:34:20;;;;;;;3.70;1.67;;;12.40;99.90;;;;;;4899065;29;20071;-85
2022/09/26 08:36:54;;;;;;;3.72;1.35;;;12.40;99.90;;;;;;4919784;29;20037;-85
2022/09/26 08:39:38;;;;;;;1.75;1.42;;;12.50;99.90;;;;;;4912344;29;20479;-85
2022/09/26 08:43:03;;;;;;;2.50;0.95;;;12.50;99.90;;;;;;4917322;29;20522;-85
2022/09/26 08:49:31;;;;;;;2.50;1.05;;;12.50;99.90;;;;;;4923252;29;20028;-85
2022/09/26 08:52:00;;;;;;;2.55;1.67;;;12.50;99.90;;;;;;4914712;29;20066;-85
2022/09/26 08:54:38;;;;;;;3.30;1.45;;;12.50;99.90;;;;;;4914082;29;20032;-85
2022/09/26 08:57:33;;;;;;;3.15;2.85;;;12.50;99.90;;;;;;4914418;29;20042;-85
2022/09/26 09:00:23;;;;;;;1.70;1.17;;;12.50;99.90;;;;;;4896120;29;20080;-85
2022/09/26 09:03:09;;;;;;;1.48;1.38;;;12.50;99.90;;;;;;4917206;29;20033;-85
2022/09/26 09:05:40;;;;;;;1.95;1.48;;;12.50;99.90;;;;;;4934881;29;20108;-85
2022/09/26 09:08:28;;;;;;;3.10;1.52;;;12.50;99.90;;;;;;4933684;29;20032;-85
2022/09/26 09:11:35;;;;;;;3.70;1.50;;;12.60;99.90;;;;;;4916249;29;20028;-85
2022/09/26 09:14:19;;;;;;;4.30;1.73;;;12.60;99.90;;;;;;4909415;29;20790;-85
2022/09/26 09:17:26;;;;;;;4.15;1.48;;;12.60;99.90;;;;;;4901808;29;20105;-85
2022/09/26 09:20:33;;;;;;;3.58;1.73;;;12.60;99.90;;;;;;4938764;29;20067;-85
2022/09/26 09:23:29;;;;;;;6.97;1.92;;;12.70;99.90;;;;;;4932525;29;20055;-85
2022/09/26 09:26:21;;;;;;;3.47;2.05;;;12.70;99.90;;;;;;4932606;29;20076;-85
2022/09/26 09:29:29;;;;;;;5.40;2.50;;;12.70;99.90;;;;;;4905622;29;20509;-85
2022/09/26 09:32:18;;;;;;;4.45;2.03;;;12.70;99.90;;;;;;4907583;29;20075;-85
2022/09/26 09:35:13;;;;;;;4.60;2.08;;;12.70;99.90;;;;;;4928909;29;20024;-85
2022/09/26 09:38:00;;;;;;;2.47;1.58;;;12.70;99.90;;;;;;4930727;29;20056;-85
2022/09/26 09:41:17;;;;;;;4.03;1.30;;;12.80;99.90;;;;;;4929696;29;20532;-85
2022/09/26 09:43:50;;;;;;;1.80;1.52;;;12.80;99.90;;;;;;4916229;29;20037;-86
2022/09/26 09:46:21;;;;;;;4.47;1.80;;;12.80;99.90;;;;;;4914023;29;20024;-86
2022/09/26 09:48:49;;;;;;;4.53;1.80;;;12.80;99.90;;;;;;4929319;29;20056;-85
2022/09/26 09:51:30;;;;;;;4.85;1.75;;;12.80;99.90;;;;;;4929519;29;20032;-85
2022/09/26 09:54:07;;;;;;;2.88;1.20;;;12.80;99.90;;;;;;4929361;29;20043;-85
2022/09/26 09:57:05;;;;;;;5.38;2.65;;;12.80;99.90;;;;;;4929663;29;20024;-85
2022/09/26 10:00:00;;;;;;;1.63;1.52;;;12.90;99.90;;;;;;4918720;29;20040;-85
2022/09/26 10:03:03;;;;;;;5.45;1.90;;;12.90;99.90;;;;;;4929089;29;20437;-85
2022/09/26 10:05:49;;;;;;;4.07;2.55;;;12.90;99.90;;;;;;4914043;29;20032;-85
2022/09/26 10:08:31;;;;;;;8.32;2.80;;;12.90;99.90;;;;;;4929286;29;20028;-85
2022/09/26 10:11:21;;;;;;;3.25;2.17;;;12.90;99.90;;;;;;4930196;29;20040;-85
2022/09/26 10:14:02;;;;;;;;;;;13.00;99.90;;;;;;4931075;29;20076;-85
2022/09/26 10:17:08;;;;;;;2.83;1.67;;;13.00;99.90;;;;;;4930984;29;19962;-85
2022/09/26 10:19:40;;;;;;;2.88;1.73;;;12.70;99.90;;;;;;4918821;29;20020;-86
2022/09/26 10:22:16;;;;;;;4.05;1.52;;;12.90;99.90;;;;;;4930943;29;20064;-85
2022/09/26 10:24:45;;;;;;;1.65;1.38;;;13.00;99.90;;;;;;4931269;29;20481;-85
2022/09/26 10:27:21;;;;;;;3.80;1.98;;;13.00;99.90;;;;;;4929623;29;20056;-85
2022/09/26 10:29:59;;;;;;;2.28;1.63;;;13.00;99.90;;;;;;4908555;29;20032;-85
2022/09/26 10:32:27;;;;;;;3.00;1.77;;;13.00;99.90;;;;;;4906604;29;20027;-85
2022/09/26 10:35:17;;;;;;;4.05;1.40;;;13.00;99.90;;;;;;4909853;29;20048;-85
2022/09/26 10:37:49;;;;;;;7.30;2.95;;;13.00;99.90;;;;;;4927021;29;20028;-85
2022/09/26 10:40:44;;;;;;;6.45;3.20;;;12.90;99.90;;;;;;4927163;29;20048;-85
2022/09/26 10:43:31;;;;;;;2.60;1.30;;;12.90;99.90;;;;;;4928740;29;20031;-85
2022/09/26 10:46:13;;;;;;;2.38;1.90;;;12.90;99.90;;;;;;4924450;29;20064;-85
2022/09/26 10:49:01;;;;;;;1.90;1.55;;;12.90;99.90;;;;;;4929886;29;20048;-85
2022/09/26 10:52:10;;;;;;;8.55;3.10;;;12.90;99.90;;;;;;4927713;29;20028;-85
2022/09/26 10:54:41;;;;;;;1.85;1.45;;;12.90;99.90;;;;;;4913434;29;20036;-85
2022/09/26 10:57:18;;;;;;;4.57;1.98;;;12.90;99.90;;;;;;4933766;29;20032;-85
2022/09/26 10:59:46;;;;;;;4.15;1.55;;;12.90;99.90;;;;;;4932376;29;20040;-86
2022/09/26 11:02:18;;;;;;;6.32;2.33;;;13.00;99.90;;;;;;4931630;29;20059;-86
2022/09/26 11:07:46;;;;;;;4.13;1.83;;;13.00;99.90;;;;;;4933453;29;20032;-86
2022/09/26 11:10:41;;;;;;;3.55;2.17;;;13.00;99.90;;;;;;4932163;29;20029;-85
2022/09/26 11:13:17;;;;;;;4.13;1.80;;;13.00;99.90;;;;;;4917043;29;20494;-86
2022/09/26 11:16:00;;;;;;;2.67;1.80;;;12.90;99.90;;;;;;4931387;29;20029;-86
2022/09/26 11:18:46;;;;;;;6.28;2.53;;;13.00;99.90;;;;;;4932116;29;20430;-86
2022/09/26 11:21:33;;;;;;;7.55;1.90;;;13.00;99.90;;;;;;4929199;29;20111;-86
2022/09/26 11:24:21;;;;;;;4.63;2.10;;;12.90;99.90;;;;;;4925737;29;20032;-85
2022/09/26 11:27:00;;;;;;;4.35;1.95;;;12.90;99.90;;;;;;4932419;29;20032;-86
2022/09/26 11:29:54;;;;;;;2.92;2.05;;;12.90;99.90;;;;;;4933173;29;20036;-85
2022/09/26 11:32:39;;;;;;;5.50;2.72;;;13.00;99.90;;;;;;4924166;29;20037;-85
2022/09/26 11:35:42;;;;;;;3.08;2.88;;;12.90;99.90;;;;;;4921545;29;20051;-87
2022/09/26 11:38:14;;;;;;;3.55;2.40;;;13.00;99.90;;;;;;4921392;29;20482;-86
2022/09/26 11:40:49;;;;;;;4.32;2.30;;;13.00;99.90;;;;;;4931581;29;20028;-85
2022/09/26 11:43:29;;;;;;;2.80;1.88;;;12.90;99.90;;;;;;4930151;29;20028;-85
2022/09/26 11:46:48;;;;;;;4.07;2.50;;;13.00;99.90;;;;;;4930612;29;20032;-86
2022/09/26 11:49:44;;;;;;;3.00;2.67;;;13.00;99.90;;;;;;4931041;29;20524;-85
2022/09/26 11:52:52;;;;;;;7.28;2.50;;;13.00;99.90;;;;;;4917456;29;20028;-85
2022/09/26 11:55:36;;;;;;;4.18;2.60;;;13.00;99.90;;;;;;4914913;29;20043;-88
2022/09/26 11:58:18;;;;;;;3.65;2.60;;;12.90;99.90;;;;;;4929969;29;20036;-87
2022/09/26 12:00:54;;;;;;;2.17;1.98;;;13.00;99.90;;;;;;4930609;29;20149;-87
2022/09/26 12:03:29;;;;;;;3.20;2.03;;;12.90;99.90;;;;;;4931205;29;20028;-87
2022/09/26 12:06:06;;;;;;;2.10;2.00;;;12.90;99.90;;;;;;4919693;29;20035;-88
2022/09/26 12:08:59;;;;;;;1.83;1.55;;;12.90;99.90;;;;;;4931800;29;20036;-87
2022/09/26 12:11:51;;;;;;;2.63;1.63;;;12.90;99.90;;;;;;4930538;29;20095;-88
2022/09/26 12:15:04;;;;;;;2.50;1.80;;;12.90;99.90;;;;;;4931889;29;20036;-87
2022/09/26 12:17:52;;;;;;;4.53;2.17;;;13.00;99.90;;;;;;4929902;29;20040;-85
2022/09/26 12:20:35;;;;;;;4.82;2.42;;;13.00;99.90;;;;;;4929801;29;20056;-88
2022/09/26 12:23:25;;;;;;;2.38;1.75;;;13.00;99.90;;;;;;4931423;29;20044;-87
2022/09/26 12:26:15;;;;;;;4.93;3.05;;;13.00;99.90;;;;;;4929872;29;20029;-87
2022/09/26 12:28:50;;;;;;;5.00;3.53;;;12.90;99.90;;;;;;4930506;29;20032;-86
2022/09/26 12:31:37;;;;;;;3.25;1.80;;;12.90;99.90;;;;;;4929564;29;20064;-85
2022/09/26 12:34:25;;;;;;;13.50;2.72;;;12.90;99.90;;;;;;4929922;29;20114;-87
2022/09/26 12:37:40;;;;;;;3.35;1.90;;;13.00;99.90;;;;;;4930855;29;20494;-86
2022/09/26 12:40:25;;;;;;;2.03;1.92;;;12.90;99.90;;;;;;4912216;29;20101;-87
2022/09/26 12:43:18;;;;;;;4.15;1.80;;;13.00;99.90;;;;;;4929967;29;20028;-88
2022/09/26 12:46:11;;;;;;;13.90;2.42;;;13.00;99.90;;;;;;4929598;29;20028;-87
2022/09/26 12:49:21;;;;;;;4.45;2.03;;;13.00;99.90;;;;;;4929375;29;20059;-88
2022/09/26 12:51:50;;;;;;;;;;;12.90;99.90;;;;;;4921507;29;20051;-87
2022/09/26 12:54:32;;;;;;;2.80;1.55;;;12.90;99.90;;;;;;4929542;29;20361;-85
2022/09/26 12:57:25;;;;;;;1.88;1.77;;;12.90;99.90;;;;;;4925471;29;20047;-88
2022/09/26 13:00:10;;;;;;;4.38;2.58;;;12.90;99.90;;;;;;4920611;29;20099;-87
2022/09/26 13:03:13;;;;;;;6.35;2.58;;;12.90;99.90;;;;;;4929661;29;20056;-88
2022/09/26 13:05:57;;;;;;;2.30;1.48;;;12.90;99.90;;;;;;4913322;29;20040;-88
2022/09/26 13:08:38;;;;;;;2.13;1.98;;;12.90;99.90;;;;;;4910400;29;20040;-87
2022/09/26 13:11:22;;;;;;;4.05;1.52;;;12.80;99.90;;;;;;4907349;29;20060;-87
2022/09/26 13:14:04;;;;;;;3.50;1.55;;;12.90;99.90;;;;;;4921939;29;20039;-88
2022/09/26 13:16:47;;;;;;;6.25;2.13;;;12.80;99.90;;;;;;4923685;29;20464;-87
2022/09/26 13:19:33;;;;;;;5.80;2.72;;;12.80;99.90;;;;;;4928080;29;20032;-88
2022/09/26 13:22:16;;;;;;;1.65;1.55;;;12.90;99.90;;;;;;4928756;29;20124;-87
2022/09/26 13:24:51;;;;;;;3.97;1.70;;;12.80;99.90;;;;;;4929214;29;20040;-88
2022/09/26 13:28:16;;;;;;;4.93;3.20;;;12.80;99.90;;;;;;4930394;29;20029;-87
2022/09/26 13:30:48;;;;;;;4.50;1.15;;;12.80;99.90;;;;;;4919206;29;20046;-87
2022/09/26 13:33:21;;;;;;;6.00;3.35;;;12.80;99.90;;;;;;4928432;29;20033;-87
2022/09/26 13:35:50;;;;;;;4.90;1.80;;;12.80;99.90;;;;;;4917195;29;20024;-87
2022/09/26 13:38:26;;;;;;;4.38;2.35;;;12.80;99.90;;;;;;4912661;29;20024;-87
2022/09/26 13:41:08;;;;;;;3.15;2.58;;;12.80;99.90;;;;;;4929803;29;20458;-87
2022/09/26 13:44:04;;;;;;;5.82;2.40;;;12.80;99.90;;;;;;4930011;29;20028;-87
2022/09/26 13:46:39;;;;;;;4.93;4.22;;;12.80;99.90;;;;;;4928725;29;20032;-87
2022/09/26 13:49:33;;;;;;;2.97;2.67;;;12.80;99.90;;;;;;4912863;29;20063;-88
2022/09/26 13:52:33;;;;;;;4.35;2.45;;;12.80;99.90;;;;;;4926953;29;20433;-87
2022/09/26 13:55:13;;;;;;;8.20;3.35;;;12.80;99.90;;;;;;4927961;29;20044;-88
2022/09/26 13:58:02;;;;;;;5.65;3.97;;;12.80;99.90;;;;;;4919945;29;20496;-87
2022/09/26 14:00:31;;;;;;;5.05;2.60;;;12.80;99.90;;;;;;4912913;29;20032;-88
2022/09/26 14:03:12;;;;;;;3.42;3.13;;;12.80;99.90;;;;;;4928712;29;20035;-88